createdAt,value
2019-03-15T00:00:11.382Z,6.56
2019-03-15T00:02:11.366Z,6.56
2019-03-15T00:04:11.442Z,6.56
2019-03-15T00:06:11.426Z,6.5
2019-03-15T00:06:29.153Z,6.5
2019-03-15T00:08:11.465Z,6.5
2019-03-15T00:10:11.287Z,6.44
2019-03-15T00:12:11.381Z,6.44
2019-03-15T00:14:11.440Z,6.38
2019-03-15T00:16:11.396Z,6.19
2019-03-15T00:18:11.317Z,6.25
2019-03-15T00:20:11.397Z,6.25
2019-03-15T00:21:28.250Z,6.25
2019-03-15T00:22:11.378Z,6.31
2019-03-15T00:24:11.433Z,6.25
2019-03-15T00:26:11.300Z,6.25
2019-03-15T00:28:11.435Z,6.25
2019-03-15T00:30:11.437Z,6.19
2019-03-15T00:32:11.375Z,6.31
2019-03-15T00:34:11.430Z,6.25
2019-03-15T00:36:11.353Z,6.19
2019-03-15T00:36:28.232Z,6.13
2019-03-15T00:38:11.429Z,6.13
2019-03-15T00:40:11.306Z,6.13
2019-03-15T00:42:11.328Z,6.13
2019-03-15T00:44:11.526Z,6.13
2019-03-15T00:46:11.400Z,6.13
2019-03-15T00:48:11.354Z,6.19
2019-03-15T00:50:11.373Z,6.19
2019-03-15T00:51:29.220Z,6.25
2019-03-15T00:52:11.306Z,6.25
2019-03-15T00:54:11.297Z,6.31
2019-03-15T00:56:11.755Z,6.31
2019-03-15T00:58:11.377Z,6.31
2019-03-15T01:00:11.372Z,6.25
2019-03-15T01:02:11.476Z,6.19
2019-03-15T01:04:11.302Z,6.19
2019-03-15T01:06:11.386Z,6.19
2019-03-15T01:06:28.296Z,6.19
2019-03-15T01:08:11.518Z,6.19
2019-03-15T01:10:11.454Z,6.19
2019-03-15T01:12:11.305Z,6.13
2019-03-15T01:14:11.394Z,6.19
2019-03-15T01:16:11.394Z,6.06
2019-03-15T01:18:11.345Z,6.06
2019-03-15T01:20:11.403Z,6.06
2019-03-15T01:21:28.309Z,6.06
2019-03-15T01:22:11.434Z,6.06
2019-03-15T01:24:11.341Z,6
2019-03-15T01:26:11.438Z,6.06
2019-03-15T01:28:11.357Z,6
2019-03-15T01:30:12.264Z,6
2019-03-15T01:32:11.435Z,6.06
2019-03-15T01:34:11.379Z,6.06
2019-03-15T01:36:11.369Z,6.06
2019-03-15T01:36:28.214Z,6.06
2019-03-15T01:38:11.342Z,6
2019-03-15T01:40:11.449Z,6
2019-03-15T01:42:11.431Z,6
2019-03-15T01:44:11.301Z,6.06
2019-03-15T01:46:11.449Z,6.13
2019-03-15T01:48:11.433Z,6.13
2019-03-15T01:50:11.416Z,6.19
2019-03-15T01:51:28.262Z,6.13
2019-03-15T01:52:11.355Z,6.19
2019-03-15T01:54:12.450Z,6.25
2019-03-15T01:56:11.430Z,6.19
2019-03-15T01:58:11.425Z,6.25
2019-03-15T02:00:11.359Z,6.25
2019-03-15T02:02:12.334Z,6.25
2019-03-15T02:04:11.369Z,6.19
2019-03-15T02:06:11.367Z,6.13
2019-03-15T02:06:28.284Z,6.13
2019-03-15T02:08:11.373Z,6.06
2019-03-15T02:10:11.367Z,6.06
2019-03-15T02:12:11.420Z,6
2019-03-15T02:14:11.364Z,5.94
2019-03-15T02:16:11.278Z,6
2019-03-15T02:18:11.276Z,6
2019-03-15T02:20:11.417Z,5.94
2019-03-15T02:21:28.358Z,5.94
2019-03-15T02:22:11.289Z,5.94
2019-03-15T02:24:11.434Z,5.94
2019-03-15T02:26:12.300Z,5.94
2019-03-15T02:28:11.370Z,5.94
2019-03-15T02:30:11.305Z,5.88
2019-03-15T02:32:11.413Z,5.94
2019-03-15T02:34:11.318Z,6
2019-03-15T02:36:11.431Z,6
2019-03-15T02:36:28.351Z,6
2019-03-15T02:38:11.370Z,6
2019-03-15T02:40:11.453Z,6.06
2019-03-15T02:42:11.432Z,6.19
2019-03-15T02:44:12.307Z,6.19
2019-03-15T02:46:11.438Z,6.19
2019-03-15T02:48:11.446Z,6.19
2019-03-15T02:50:11.385Z,6.25
2019-03-15T02:51:28.362Z,6.19
2019-03-15T02:52:11.379Z,6.19
2019-03-15T02:54:11.302Z,6.19
2019-03-15T02:56:11.443Z,6.25
2019-03-15T02:58:11.395Z,6.25
2019-03-15T03:00:11.369Z,6.31
2019-03-15T03:02:11.421Z,6.31
2019-03-15T03:04:11.437Z,6.25
2019-03-15T03:06:11.359Z,6.31
2019-03-15T03:06:28.600Z,6.31
2019-03-15T03:08:11.301Z,6.31
2019-03-15T03:10:11.352Z,6.31
2019-03-15T03:12:11.420Z,6.31
2019-03-15T03:14:11.376Z,6.31
2019-03-15T03:16:11.382Z,6.31
2019-03-15T03:18:11.300Z,6.38
2019-03-15T03:20:11.414Z,6.38
2019-03-15T03:21:28.362Z,6.38
2019-03-15T03:22:11.430Z,6.44
2019-03-15T03:24:11.436Z,6.44
2019-03-15T03:26:11.422Z,6.38
2019-03-15T03:28:11.405Z,6.44
2019-03-15T03:30:11.705Z,6.44
2019-03-15T03:32:13.509Z,6.5
2019-03-15T03:34:12.544Z,6.5
2019-03-15T03:36:11.329Z,6.56
2019-03-15T03:36:28.377Z,6.56
2019-03-15T03:38:12.262Z,6.56
2019-03-15T03:40:11.379Z,6.5
2019-03-15T03:42:11.544Z,6.5
2019-03-15T03:44:11.317Z,6.56
2019-03-15T03:46:11.391Z,6.56
2019-03-15T03:48:11.442Z,6.63
2019-03-15T03:50:11.398Z,6.63
2019-03-15T03:51:28.340Z,6.63
2019-03-15T03:52:11.445Z,6.69
2019-03-15T03:54:11.307Z,6.63
2019-03-15T03:56:11.432Z,6.63
2019-03-15T03:58:11.421Z,6.63
2019-03-15T04:00:11.383Z,6.69
2019-03-15T04:02:11.378Z,6.69
2019-03-15T04:04:11.371Z,6.69
2019-03-15T04:06:11.425Z,6.63
2019-03-15T04:06:28.277Z,6.56
2019-03-15T04:08:13.522Z,6.56
2019-03-15T04:10:11.377Z,6.56
2019-03-15T04:12:11.302Z,6.56
2019-03-15T04:14:11.377Z,6.56
2019-03-15T04:16:11.322Z,6.63
2019-03-15T04:18:11.396Z,6.63
2019-03-15T04:20:11.454Z,6.63
2019-03-15T04:21:28.336Z,6.69
2019-03-15T04:22:11.370Z,6.69
2019-03-15T04:24:12.281Z,6.69
2019-03-15T04:26:11.344Z,6.69
2019-03-15T04:28:11.377Z,6.69
2019-03-15T04:30:11.366Z,6.75
2019-03-15T04:32:11.295Z,6.75
2019-03-15T04:34:12.318Z,6.75
2019-03-15T04:36:11.382Z,6.69
2019-03-15T04:36:28.219Z,6.69
2019-03-15T04:38:21.297Z,6.69
2019-03-15T04:40:11.380Z,6.75
2019-03-15T04:42:11.438Z,6.75
2019-03-15T04:44:11.379Z,6.75
2019-03-15T04:46:11.444Z,6.75
2019-03-15T04:48:11.319Z,6.75
2019-03-15T04:50:11.392Z,6.63
2019-03-15T04:51:28.362Z,6.69
2019-03-15T04:52:11.351Z,6.63
2019-03-15T04:54:11.374Z,6.69
2019-03-15T04:56:11.294Z,6.63
2019-03-15T04:58:11.380Z,6.56
2019-03-15T05:00:11.458Z,6.5
2019-03-15T05:02:11.384Z,6.5
2019-03-15T05:04:11.424Z,6.44
2019-03-15T05:06:11.319Z,6.5
2019-03-15T05:06:28.231Z,6.5
2019-03-15T05:08:12.299Z,6.44
2019-03-15T05:10:11.450Z,6.38
2019-03-15T05:12:11.437Z,6.38
2019-03-15T05:14:11.386Z,6.38
2019-03-15T05:16:11.373Z,6.38
2019-03-15T05:18:11.300Z,6.31
2019-03-15T05:20:11.382Z,6.31
2019-03-15T05:21:28.355Z,6.31
2019-03-15T05:22:11.392Z,6.31
2019-03-15T05:24:11.379Z,6.25
2019-03-15T05:26:12.211Z,6.25
2019-03-15T05:28:11.408Z,6.25
2019-03-15T05:30:11.366Z,6.25
2019-03-15T05:32:12.300Z,6.19
2019-03-15T05:34:11.428Z,6.19
2019-03-15T05:36:11.308Z,6.19
2019-03-15T05:36:28.264Z,6.19
2019-03-15T05:38:11.357Z,6.13
2019-03-15T05:40:11.340Z,6.13
2019-03-15T05:42:11.425Z,6.13
2019-03-15T05:44:11.441Z,6.13
2019-03-15T05:46:11.456Z,6.13
2019-03-15T05:48:11.335Z,6.13
2019-03-15T05:50:11.368Z,6.13
2019-03-15T05:51:28.246Z,6.13
2019-03-15T05:52:11.427Z,6.13
2019-03-15T05:54:11.440Z,6.13
2019-03-15T05:56:11.439Z,6.13
2019-03-15T05:58:11.301Z,6.13
2019-03-15T06:00:11.390Z,6.13
2019-03-15T06:02:11.464Z,6.13
2019-03-15T06:04:11.372Z,6.13
2019-03-15T06:06:11.431Z,6.13
2019-03-15T06:06:28.322Z,6.13
2019-03-15T06:08:11.375Z,6.13
2019-03-15T06:10:11.436Z,6.13
2019-03-15T06:12:11.296Z,6.13
2019-03-15T06:14:11.383Z,6.13
2019-03-15T06:16:11.369Z,6.13
2019-03-15T06:18:11.420Z,6.13
2019-03-15T06:20:11.373Z,6.13
2019-03-15T06:21:28.244Z,6.13
2019-03-15T06:22:12.318Z,6.13
2019-03-15T06:24:11.424Z,6.13
2019-03-15T06:26:11.435Z,6.13
2019-03-15T06:28:11.394Z,6.13
2019-03-15T06:30:13.055Z,6.13
2019-03-15T06:32:11.426Z,6.13
2019-03-15T06:34:11.330Z,6.13
2019-03-15T06:36:11.372Z,6.13
2019-03-15T06:36:28.292Z,6.13
2019-03-15T06:38:11.419Z,6.19
2019-03-15T06:40:13.467Z,6.19
2019-03-15T06:42:11.355Z,6.19
2019-03-15T06:44:11.357Z,6.25
2019-03-15T06:46:11.343Z,6.38
2019-03-15T06:48:11.374Z,6.5
2019-03-15T06:50:11.300Z,6.63
2019-03-15T06:51:28.352Z,6.63
2019-03-15T06:52:11.323Z,6.69
2019-03-15T06:54:11.936Z,6.69
2019-03-15T06:56:11.423Z,6.75
2019-03-15T06:58:12.315Z,6.88
2019-03-15T07:00:11.366Z,6.88
2019-03-15T07:02:11.403Z,6.88
2019-03-15T07:04:11.357Z,7
2019-03-15T07:06:11.428Z,7.06
2019-03-15T07:06:28.350Z,7.06
2019-03-15T07:08:11.419Z,7.13
2019-03-15T07:10:11.374Z,7.13
2019-03-15T07:12:11.601Z,7.19
2019-03-15T07:14:11.358Z,7.25
2019-03-15T07:16:11.286Z,7.25
2019-03-15T07:18:11.393Z,7.31
2019-03-15T07:20:11.390Z,7.38
2019-03-15T07:21:28.342Z,7.38
2019-03-15T07:22:12.243Z,7.38
2019-03-15T07:24:24.348Z,7.44
2019-03-15T07:26:11.360Z,7.5
2019-03-15T07:28:11.303Z,7.56
2019-03-15T07:30:11.428Z,7.69
2019-03-15T07:32:11.375Z,7.69
2019-03-15T07:34:13.748Z,7.75
2019-03-15T07:36:11.382Z,7.75
2019-03-15T07:36:28.343Z,7.75
2019-03-15T07:38:11.369Z,7.75
2019-03-15T07:40:11.334Z,7.81
2019-03-15T07:42:11.447Z,7.94
2019-03-15T07:44:11.298Z,7.94
2019-03-15T07:46:11.370Z,7.94
2019-03-15T07:48:21.613Z,7.94
2019-03-15T07:50:13.873Z,8.06
2019-03-15T07:51:28.344Z,8.06
2019-03-15T07:52:11.295Z,8.06
2019-03-15T07:54:11.392Z,8.06
2019-03-15T07:56:12.405Z,8.13
2019-03-15T07:58:11.374Z,8.13
2019-03-15T08:00:11.324Z,8.13
2019-03-15T08:02:11.344Z,8.19
2019-03-15T08:04:16.951Z,8.19
2019-03-15T08:06:11.449Z,8.19
2019-03-15T08:06:34.407Z,8.25
2019-03-15T08:08:11.418Z,8.31
2019-03-15T08:10:11.289Z,8.31
2019-03-15T08:12:11.372Z,8.38
2019-03-15T08:14:11.394Z,8.38
2019-03-15T08:16:11.290Z,8.44
2019-03-15T08:18:11.372Z,8.5
2019-03-15T08:20:11.383Z,8.56
2019-03-15T08:21:28.342Z,8.56
2019-03-15T08:22:11.436Z,8.56
2019-03-15T08:24:11.371Z,8.56
2019-03-15T08:26:11.353Z,8.63
2019-03-15T08:28:11.386Z,8.69
2019-03-15T08:30:11.454Z,8.69
2019-03-15T08:32:11.325Z,8.69
2019-03-15T08:34:11.449Z,8.75
2019-03-15T08:36:11.387Z,8.81
2019-03-15T08:36:28.251Z,8.81
2019-03-15T08:38:11.381Z,8.81
2019-03-15T08:40:11.427Z,8.81
2019-03-15T08:42:11.365Z,8.88
2019-03-15T08:44:11.292Z,8.88
2019-03-15T08:46:11.438Z,8.94
2019-03-15T08:48:12.313Z,9
2019-03-15T08:50:14.700Z,9
2019-03-15T08:51:29.175Z,9
2019-03-15T08:52:11.364Z,9
2019-03-15T08:54:11.427Z,9.06
2019-03-15T08:56:14.321Z,9.06
2019-03-15T08:58:14.491Z,9.06
2019-03-15T09:00:11.377Z,9.06
2019-03-15T09:02:11.431Z,9.13
2019-03-15T09:04:11.366Z,9.13
2019-03-15T09:06:11.378Z,9.13
2019-03-15T09:06:29.222Z,9.13
2019-03-15T09:08:11.362Z,9.19
2019-03-15T09:10:21.655Z,9.19
2019-03-15T09:12:11.384Z,9.19
2019-03-15T09:14:11.429Z,9.19
2019-03-15T09:16:11.318Z,9.25
2019-03-15T09:18:11.473Z,9.25
2019-03-15T09:20:11.382Z,9.31
2019-03-15T09:21:28.246Z,9.31
2019-03-15T09:22:11.351Z,9.31
2019-03-15T09:24:11.385Z,9.31
2019-03-15T09:26:11.369Z,9.31
2019-03-15T09:28:12.271Z,9.31
2019-03-15T09:30:22.462Z,9.31
2019-03-15T09:32:11.345Z,9.38
2019-03-15T09:34:11.384Z,9.38
2019-03-15T09:36:11.309Z,9.38
2019-03-15T09:36:28.314Z,9.38
2019-03-15T09:38:11.356Z,9.38
2019-03-15T09:40:11.303Z,9.38
2019-03-15T09:42:11.371Z,9.38
2019-03-15T09:44:11.385Z,9.38
2019-03-15T09:46:12.257Z,9.38
2019-03-15T09:48:11.378Z,9.44
2019-03-15T09:50:21.753Z,9.44
2019-03-15T09:51:28.298Z,9.44
2019-03-15T09:52:11.297Z,9.44
2019-03-15T09:54:11.312Z,9.44
2019-03-15T09:56:11.376Z,9.5
2019-03-15T09:58:11.383Z,9.56
2019-03-15T10:00:11.387Z,9.5
2019-03-15T10:02:11.429Z,9.56
2019-03-15T10:04:11.344Z,9.63
2019-03-15T10:06:15.473Z,9.56
2019-03-15T10:06:28.219Z,9.56
2019-03-15T10:08:11.318Z,9.56
2019-03-15T10:10:13.643Z,9.56
2019-03-15T10:12:11.379Z,9.56
2019-03-15T10:14:11.368Z,9.56
2019-03-15T10:16:11.387Z,9.56
2019-03-15T10:18:11.390Z,9.56
2019-03-15T10:20:12.599Z,9.56
2019-03-15T10:21:28.365Z,9.56
2019-03-15T10:22:11.414Z,9.56
2019-03-15T10:24:11.374Z,9.56
2019-03-15T10:26:13.692Z,9.63
2019-03-15T10:28:11.370Z,9.63
2019-03-15T10:30:11.309Z,9.63
2019-03-15T10:32:11.436Z,9.63
2019-03-15T10:34:11.443Z,9.69
2019-03-15T10:36:11.431Z,9.63
2019-03-15T10:36:28.229Z,9.63
2019-03-15T10:38:11.414Z,9.69
2019-03-15T10:40:11.290Z,9.69
2019-03-15T10:42:11.374Z,9.69
2019-03-15T10:44:11.387Z,9.69
2019-03-15T10:46:11.442Z,9.69
2019-03-15T10:48:24.121Z,9.63
2019-03-15T10:50:11.376Z,9.69
2019-03-15T10:51:28.254Z,9.69
2019-03-15T10:52:11.368Z,9.69
2019-03-15T10:54:11.340Z,9.69
2019-03-15T10:56:11.423Z,9.63
2019-03-15T10:58:11.436Z,9.69
2019-03-15T11:00:11.377Z,9.69
2019-03-15T11:02:11.375Z,9.69
2019-03-15T11:04:12.295Z,9.69
2019-03-15T11:06:11.353Z,9.69
2019-03-15T11:06:28.271Z,9.69
2019-03-15T11:08:11.387Z,9.69
2019-03-15T11:10:11.292Z,9.69
2019-03-15T11:12:11.394Z,9.69
2019-03-15T11:14:11.438Z,9.69
2019-03-15T11:16:11.298Z,9.63
2019-03-15T11:18:11.297Z,9.69
2019-03-15T11:20:11.449Z,9.69
2019-03-15T11:21:28.282Z,9.69
2019-03-15T11:22:11.436Z,9.69
2019-03-15T11:24:11.298Z,9.69
2019-03-15T11:26:13.737Z,9.63
2019-03-15T11:28:11.381Z,9.69
2019-03-15T11:30:11.292Z,9.69
2019-03-15T11:32:11.373Z,9.75
2019-03-15T11:34:11.428Z,9.75
2019-03-15T11:36:11.376Z,9.69
2019-03-15T11:36:28.319Z,9.75
2019-03-15T11:38:11.437Z,9.75
2019-03-15T11:40:13.775Z,9.75
2019-03-15T11:42:11.335Z,9.75
2019-03-15T11:44:11.430Z,9.75
2019-03-15T11:46:11.366Z,9.75
2019-03-15T11:48:11.286Z,9.69
2019-03-15T11:50:11.363Z,9.75
2019-03-15T11:51:28.430Z,9.69
2019-03-15T11:52:11.436Z,9.75
2019-03-15T11:54:11.383Z,9.69
2019-03-15T11:56:11.385Z,9.69
2019-03-15T11:58:11.372Z,9.75
2019-03-15T12:00:11.294Z,9.75
2019-03-15T12:02:11.312Z,9.75
2019-03-15T12:04:11.541Z,9.75
2019-03-15T12:06:11.452Z,9.75
2019-03-15T12:06:28.237Z,9.75
2019-03-15T12:08:11.373Z,9.75
2019-03-15T12:10:11.448Z,9.75
2019-03-15T12:12:11.412Z,9.75
2019-03-15T12:14:11.293Z,9.75
2019-03-15T12:16:11.317Z,9.75
2019-03-15T12:18:11.374Z,9.69
2019-03-15T12:20:11.427Z,9.75
2019-03-15T12:21:28.402Z,9.81
2019-03-15T12:22:11.300Z,9.75
2019-03-15T12:24:11.445Z,9.81
2019-03-15T12:26:11.308Z,9.94
2019-03-15T12:28:11.290Z,9.94
2019-03-15T12:30:11.437Z,9.94
2019-03-15T12:32:11.333Z,9.88
2019-03-15T12:34:11.387Z,9.94
2019-03-15T12:36:11.435Z,9.94
2019-03-15T12:36:28.301Z,9.94
2019-03-15T12:38:11.285Z,9.88
2019-03-15T12:40:11.289Z,9.94
2019-03-15T12:42:11.406Z,9.94
2019-03-15T12:44:11.294Z,9.94
2019-03-15T12:46:11.378Z,9.94
2019-03-15T12:48:11.399Z,9.94
2019-03-15T12:50:11.439Z,9.94
2019-03-15T12:51:32.248Z,9.94
2019-03-15T12:52:11.431Z,9.88
2019-03-15T12:54:11.400Z,9.94
2019-03-15T12:56:11.483Z,9.94
2019-03-15T12:58:11.429Z,9.88
2019-03-15T13:00:11.995Z,9.94
2019-03-15T13:02:11.437Z,9.88
2019-03-15T13:04:11.435Z,9.94
2019-03-15T13:06:11.297Z,9.94
2019-03-15T13:06:28.362Z,9.94
2019-03-15T13:08:11.348Z,9.94
2019-03-15T13:10:11.371Z,9.94
2019-03-15T13:12:11.346Z,9.94
2019-03-15T13:14:11.330Z,10
2019-03-15T13:16:11.390Z,10
2019-03-15T13:18:12.316Z,10.06
2019-03-15T13:20:11.387Z,10.13
2019-03-15T13:21:28.349Z,10.13
2019-03-15T13:22:11.379Z,10.13
2019-03-15T13:24:11.446Z,10.13
2019-03-15T13:26:12.270Z,10.13
2019-03-15T13:28:11.446Z,10.19
2019-03-15T13:30:11.486Z,10.13
2019-03-15T13:32:11.343Z,10.06
2019-03-15T13:34:11.372Z,10.06
2019-03-15T13:36:11.424Z,10.06
2019-03-15T13:36:28.376Z,10.06
2019-03-15T13:38:12.272Z,10.06
2019-03-15T13:40:11.313Z,10.13
2019-03-15T13:42:11.443Z,10.13
2019-03-15T13:44:11.464Z,10.19
2019-03-15T13:46:11.352Z,10.19
2019-03-15T13:48:11.306Z,10.25
2019-03-15T13:50:11.388Z,10.25
2019-03-15T13:51:28.362Z,10.31
2019-03-15T13:52:11.378Z,10.31
2019-03-15T13:54:11.287Z,10.38
2019-03-15T13:56:11.301Z,10.44
2019-03-15T13:58:11.381Z,10.5
2019-03-15T14:00:11.439Z,10.5
2019-03-15T14:02:11.343Z,10.44
2019-03-15T14:04:11.417Z,10.31
2019-03-15T14:06:11.389Z,10.38
2019-03-15T14:06:28.224Z,10.38
2019-03-15T14:08:12.115Z,10.31
2019-03-15T14:10:11.389Z,10.31
2019-03-15T14:12:11.517Z,10.38
2019-03-15T14:14:11.387Z,10.38
2019-03-15T14:16:11.376Z,10.44
2019-03-15T14:18:11.380Z,10.44
2019-03-15T14:20:11.436Z,10.44
2019-03-15T14:21:28.262Z,10.44
2019-03-15T14:22:11.297Z,10.44
2019-03-15T14:24:12.295Z,10.44
2019-03-15T14:26:11.333Z,10.44
2019-03-15T14:28:11.388Z,10.44
2019-03-15T14:30:11.295Z,10.5
2019-03-15T14:32:11.334Z,10.5
2019-03-15T14:34:11.383Z,10.44
2019-03-15T14:36:11.346Z,10.44
2019-03-15T14:36:28.367Z,10.44
2019-03-15T14:38:11.384Z,10.44
2019-03-15T14:40:11.694Z,10.5
2019-03-15T14:42:11.516Z,10.44
2019-03-15T14:44:11.448Z,10.44
2019-03-15T14:46:12.223Z,10.38
2019-03-15T14:48:11.430Z,10.38
2019-03-15T14:50:11.406Z,10.44
2019-03-15T14:51:28.338Z,10.5
2019-03-15T14:52:11.327Z,10.44
2019-03-15T14:54:21.382Z,10.44
2019-03-15T14:56:11.419Z,10.38
2019-03-15T14:58:11.401Z,10.31
2019-03-15T15:00:11.626Z,10.31
2019-03-15T15:02:11.724Z,10.31
2019-03-15T15:04:11.325Z,10.25
2019-03-15T15:06:11.385Z,10.13
2019-03-15T15:06:28.319Z,10.13
2019-03-15T15:08:11.298Z,10.13
2019-03-15T15:10:11.307Z,10
2019-03-15T15:12:11.435Z,9.94
2019-03-15T15:14:11.332Z,10
2019-03-15T15:16:11.314Z,9.94
2019-03-15T15:18:11.304Z,9.94
2019-03-15T15:20:11.433Z,9.94
2019-03-15T15:21:28.265Z,9.94
2019-03-15T15:22:11.287Z,9.94
2019-03-15T15:24:11.291Z,9.94
2019-03-15T15:26:11.372Z,9.94
2019-03-15T15:28:11.400Z,9.94
2019-03-15T15:30:11.405Z,9.94
2019-03-15T15:32:12.315Z,9.94
2019-03-15T15:34:11.306Z,10
2019-03-15T15:36:11.445Z,10
2019-03-15T15:36:28.234Z,10
2019-03-15T15:38:12.209Z,10.06
2019-03-15T15:40:11.390Z,10.06
2019-03-15T15:42:12.190Z,10.06
2019-03-15T15:44:11.438Z,10.06
2019-03-15T15:46:11.444Z,10.06
2019-03-15T15:48:11.507Z,10.06
2019-03-15T15:50:11.376Z,10.06
2019-03-15T15:51:29.290Z,10
2019-03-15T15:52:12.290Z,10
2019-03-15T15:54:11.423Z,10
2019-03-15T15:56:12.516Z,10
2019-03-15T15:58:21.535Z,10
2019-03-15T16:00:11.388Z,10
2019-03-15T16:02:14.079Z,10
2019-03-15T16:04:11.350Z,10
2019-03-15T16:06:11.402Z,10
2019-03-15T16:06:28.235Z,10
2019-03-15T16:08:11.385Z,10
2019-03-15T16:10:12.255Z,10
2019-03-15T16:12:11.357Z,10.06
2019-03-15T16:14:11.403Z,10.06
2019-03-15T16:16:11.467Z,10.06
2019-03-15T16:18:11.453Z,10
2019-03-15T16:20:11.445Z,10
2019-03-15T16:21:28.344Z,10
2019-03-15T16:22:11.396Z,10
2019-03-15T16:24:11.421Z,10.06
2019-03-15T16:26:11.427Z,10.06
2019-03-15T16:28:11.300Z,10.06
2019-03-15T16:30:11.527Z,10.06
2019-03-15T16:32:11.416Z,10
2019-03-15T16:34:12.235Z,10
2019-03-15T16:36:12.333Z,9.94
2019-03-15T16:36:28.341Z,9.94
2019-03-15T16:38:11.374Z,9.94
2019-03-15T16:40:11.422Z,9.88
2019-03-15T16:42:11.299Z,9.81
2019-03-15T16:44:12.246Z,9.81
2019-03-15T16:46:11.433Z,9.81
2019-03-15T16:48:11.501Z,9.88
2019-03-15T16:50:11.498Z,9.94
2019-03-15T16:51:28.476Z,9.88
2019-03-15T16:52:11.420Z,9.88
2019-03-15T16:54:11.374Z,9.94
2019-03-15T16:56:12.343Z,9.94
2019-03-15T16:58:12.256Z,9.94
2019-03-15T17:00:11.452Z,9.88
2019-03-15T17:02:11.308Z,9.94
2019-03-15T17:04:11.434Z,9.94
2019-03-15T17:06:12.266Z,10
2019-03-15T17:06:28.298Z,10
2019-03-15T17:08:11.401Z,9.94
2019-03-15T17:10:11.341Z,9.94
2019-03-15T17:12:11.283Z,9.88
2019-03-15T17:14:24.801Z,9.94
2019-03-15T17:16:11.752Z,9.94
2019-03-15T17:18:11.370Z,9.94
2019-03-15T17:20:11.465Z,9.94
2019-03-15T17:21:28.366Z,9.94
2019-03-15T17:22:11.366Z,10
2019-03-15T17:24:11.448Z,10
2019-03-15T17:26:11.374Z,9.88
2019-03-15T17:28:11.301Z,9.88
2019-03-15T17:30:11.319Z,9.88
2019-03-15T17:32:11.382Z,9.81
2019-03-15T17:34:11.292Z,9.81
2019-03-15T17:36:11.377Z,9.75
2019-03-15T17:36:28.233Z,9.75
2019-03-15T17:38:11.413Z,9.75
2019-03-15T17:40:11.468Z,9.75
2019-03-15T17:42:11.332Z,9.69
2019-03-15T17:44:11.289Z,9.69
2019-03-15T17:46:12.911Z,9.75
2019-03-15T17:48:11.375Z,9.69
2019-03-15T17:50:11.432Z,9.69
2019-03-15T17:51:28.388Z,9.69
2019-03-15T17:52:11.303Z,9.69
2019-03-15T17:54:11.393Z,9.69
2019-03-15T17:56:11.351Z,9.69
2019-03-15T17:58:11.298Z,9.69
2019-03-15T18:00:11.406Z,9.69
2019-03-15T18:02:11.294Z,9.69
2019-03-15T18:04:11.500Z,9.69
2019-03-15T18:06:11.387Z,9.69
2019-03-15T18:06:28.356Z,9.63
2019-03-15T18:08:11.456Z,9.69
2019-03-15T18:10:11.416Z,9.69
2019-03-15T18:12:11.519Z,9.69
2019-03-15T18:14:11.415Z,9.63
2019-03-15T18:16:11.433Z,9.63
2019-03-15T18:18:11.312Z,9.69
2019-03-15T18:20:11.445Z,9.69
2019-03-15T18:21:28.250Z,9.69
2019-03-15T18:22:11.304Z,9.69
2019-03-15T18:24:11.381Z,9.69
2019-03-15T18:26:11.434Z,9.69
2019-03-15T18:28:11.383Z,9.69
2019-03-15T18:30:11.396Z,9.69
2019-03-15T18:32:11.296Z,9.69
2019-03-15T18:34:11.393Z,9.69
2019-03-15T18:36:11.381Z,9.63
2019-03-15T18:36:29.101Z,9.63
2019-03-15T18:38:11.442Z,9.63
2019-03-15T18:40:11.535Z,9.63
2019-03-15T18:42:11.427Z,9.63
2019-03-15T18:44:11.401Z,9.63
2019-03-15T18:46:11.337Z,9.63
2019-03-15T18:48:11.392Z,9.63
2019-03-15T18:50:11.368Z,9.63
2019-03-15T18:51:28.328Z,9.63
2019-03-15T18:52:11.487Z,9.63
2019-03-15T18:54:17.223Z,9.63
2019-03-15T18:56:11.417Z,9.63
2019-03-15T18:58:12.368Z,9.63
2019-03-15T19:00:11.383Z,9.63
2019-03-15T19:02:11.441Z,9.63
2019-03-15T19:04:11.294Z,9.63
2019-03-15T19:06:11.427Z,9.63
2019-03-15T19:06:28.294Z,9.63
2019-03-15T19:08:11.378Z,9.63
2019-03-15T19:10:11.425Z,9.56
2019-03-15T19:12:11.293Z,9.63
2019-03-15T19:14:11.396Z,9.63
2019-03-15T19:16:19.728Z,9.56
2019-03-15T19:18:11.299Z,9.5
2019-03-15T19:20:11.307Z,9.5
2019-03-15T19:21:28.360Z,9.44
2019-03-15T19:22:12.290Z,9.44
2019-03-15T19:24:11.298Z,9.44
2019-03-15T19:26:11.433Z,9.44
2019-03-15T19:28:11.347Z,9.44
2019-03-15T19:30:12.189Z,9.44
2019-03-15T19:32:11.319Z,9.44
2019-03-15T19:34:11.382Z,9.44
2019-03-15T19:36:11.294Z,9.44
2019-03-15T19:36:28.293Z,9.44
2019-03-15T19:38:14.546Z,9.44
2019-03-15T19:40:11.466Z,9.38
2019-03-15T19:42:11.341Z,9.38
2019-03-15T19:44:11.317Z,9.38
2019-03-15T19:46:11.396Z,9.31
2019-03-15T19:48:11.412Z,9.38
2019-03-15T19:50:11.363Z,9.38
2019-03-15T19:51:28.248Z,9.38
2019-03-15T19:52:11.295Z,9.38
2019-03-15T19:54:11.354Z,9.31
2019-03-15T19:56:11.385Z,9.31
2019-03-15T19:58:11.407Z,9.31
2019-03-15T20:00:11.379Z,9.31
2019-03-15T20:02:11.389Z,9.31
2019-03-15T20:04:11.393Z,9.31
2019-03-15T20:06:11.402Z,9.25
2019-03-15T20:06:28.359Z,9.31
2019-03-15T20:08:11.461Z,9.25
2019-03-15T20:10:11.410Z,9.31
2019-03-15T20:12:11.322Z,9.25
2019-03-15T20:14:11.345Z,9.25
2019-03-15T20:16:11.378Z,9.25
2019-03-15T20:18:11.426Z,9.25
2019-03-15T20:20:11.348Z,9.25
2019-03-15T20:21:28.309Z,9.25
2019-03-15T20:22:11.390Z,9.25
2019-03-15T20:24:11.423Z,9.25
2019-03-15T20:26:11.389Z,9.25
2019-03-15T20:28:11.448Z,9.25
2019-03-15T20:30:20.861Z,9.25
2019-03-15T20:32:11.385Z,9.25
2019-03-15T20:34:11.347Z,9.31
2019-03-15T20:36:11.298Z,9.38
2019-03-15T20:36:28.290Z,9.31
2019-03-15T20:38:12.260Z,9.31
2019-03-15T20:40:11.445Z,9.31
2019-03-15T20:42:11.385Z,9.25
2019-03-15T20:44:11.468Z,9.31
2019-03-15T20:46:11.497Z,9.31
2019-03-15T20:48:11.446Z,9.31
2019-03-15T20:50:11.439Z,9.31
2019-03-15T20:51:28.408Z,9.25
2019-03-15T20:52:11.302Z,9.25
2019-03-15T20:54:11.437Z,9.19
2019-03-15T20:56:11.432Z,9.13
2019-03-15T20:58:11.372Z,9.06
2019-03-15T21:00:11.297Z,9.06
2019-03-15T21:02:11.429Z,9.06
2019-03-15T21:04:11.385Z,9
2019-03-15T21:06:12.340Z,9
2019-03-15T21:06:29.124Z,9
2019-03-15T21:08:11.289Z,9
2019-03-15T21:10:11.316Z,8.94
2019-03-15T21:12:11.389Z,8.88
2019-03-15T21:14:11.434Z,8.81
2019-03-15T21:16:12.287Z,8.81
2019-03-15T21:18:11.452Z,8.75
2019-03-15T21:20:11.389Z,8.75
2019-03-15T21:21:28.266Z,8.69
2019-03-15T21:22:11.442Z,8.69
2019-03-15T21:24:11.449Z,8.69
2019-03-15T21:26:11.351Z,8.69
2019-03-15T21:28:11.419Z,8.69
2019-03-15T21:30:11.426Z,8.63
2019-03-15T21:32:11.422Z,8.63
2019-03-15T21:34:11.374Z,8.63
2019-03-15T21:36:11.447Z,8.56
2019-03-15T21:36:28.308Z,8.56
2019-03-15T21:38:11.293Z,8.56
2019-03-15T21:40:11.438Z,8.5
2019-03-15T21:42:12.328Z,8.5
2019-03-15T21:44:11.354Z,8.5
2019-03-15T21:46:11.444Z,8.5
2019-03-15T21:48:11.513Z,8.63
2019-03-15T21:50:11.545Z,8.69
2019-03-15T21:51:30.024Z,8.69
2019-03-15T21:52:11.434Z,8.69
2019-03-15T21:54:11.310Z,8.75
2019-03-15T21:56:11.314Z,8.81
2019-03-15T21:58:11.366Z,8.81
2019-03-15T22:00:11.286Z,8.81
2019-03-15T22:02:11.362Z,8.81
2019-03-15T22:04:11.365Z,8.81
2019-03-15T22:06:11.289Z,8.81
2019-03-15T22:06:28.366Z,8.81
2019-03-15T22:08:11.385Z,8.81
2019-03-15T22:10:11.416Z,8.75
2019-03-15T22:12:11.377Z,8.69
2019-03-15T22:14:11.369Z,8.69
2019-03-15T22:16:11.370Z,8.63
2019-03-15T22:18:11.370Z,8.63
2019-03-15T22:20:11.389Z,8.63
2019-03-15T22:21:28.377Z,8.56
2019-03-15T22:22:11.430Z,8.56
2019-03-15T22:24:12.391Z,8.56
2019-03-15T22:26:11.374Z,8.5
2019-03-15T22:28:11.381Z,8.5
2019-03-15T22:30:11.372Z,8.5
2019-03-15T22:32:11.427Z,8.5
2019-03-15T22:34:11.316Z,8.5
2019-03-15T22:36:11.463Z,8.5
2019-03-15T22:36:28.288Z,8.44
2019-03-15T22:38:11.296Z,8.44
2019-03-15T22:40:11.299Z,8.44
2019-03-15T22:42:11.466Z,8.38
2019-03-15T22:44:11.386Z,8.38
2019-03-15T22:46:11.444Z,8.38
2019-03-15T22:48:11.388Z,8.38
2019-03-15T22:50:11.380Z,8.31
2019-03-15T22:51:28.429Z,8.31
2019-03-15T22:52:11.342Z,8.31
2019-03-15T22:54:11.420Z,8.31
2019-03-15T22:56:11.365Z,8.25
2019-03-15T22:58:11.368Z,8.25
2019-03-15T23:00:11.491Z,8.19
2019-03-15T23:02:11.310Z,8.19
2019-03-15T23:04:11.293Z,8.06
2019-03-15T23:06:11.436Z,8.06
2019-03-15T23:06:28.358Z,8
2019-03-15T23:08:11.437Z,8
2019-03-15T23:10:11.378Z,7.94
2019-03-15T23:12:11.345Z,7.94
2019-03-15T23:14:11.333Z,7.88
2019-03-15T23:16:11.297Z,7.88
2019-03-15T23:18:11.402Z,7.81
2019-03-15T23:20:11.373Z,7.81
2019-03-15T23:21:28.344Z,7.81
2019-03-15T23:22:11.370Z,7.81
2019-03-15T23:24:11.410Z,7.81
2019-03-15T23:26:13.220Z,7.75
2019-03-15T23:28:11.307Z,7.81
2019-03-15T23:30:11.374Z,7.81
2019-03-15T23:32:11.306Z,7.81
2019-03-15T23:34:11.344Z,7.81